createdAt,value
2023-05-10T00:00:07.502Z,4.03
2023-05-10T00:01:09.627Z,4.40
2023-05-10T00:02:11.756Z,4.05
2023-05-10T00:03:13.923Z,4.35
2023-05-10T00:04:16.179Z,4.47
2023-05-10T00:05:18.375Z,4.43
2023-05-10T00:06:21.319Z,4.68
2023-05-10T00:07:23.475Z,4.05
2023-05-10T00:08:25.612Z,4.63
2023-05-10T00:09:28.057Z,3.90
2023-05-10T00:10:30.303Z,4.07
2023-05-10T00:11:32.560Z,5.53
2023-05-10T00:12:34.702Z,4.38
2023-05-10T00:13:36.805Z,4.05
2023-05-10T00:14:38.948Z,4.10
2023-05-10T00:15:41.126Z,4.15
2023-05-10T00:16:43.260Z,4.30
2023-05-10T00:17:45.439Z,4.45
2023-05-10T00:18:47.531Z,4.07
2023-05-10T00:19:49.692Z,4.50
2023-05-10T00:20:52.028Z,5.05
2023-05-10T00:21:54.123Z,4.50
2023-05-10T00:22:56.217Z,4.60
2023-05-10T00:23:58.302Z,4.70
2023-05-10T00:25:00.777Z,4.65
2023-05-10T00:26:03.024Z,5.07
2023-05-10T00:27:05.145Z,4.72
2023-05-10T00:28:07.233Z,4.30
2023-05-10T00:29:09.296Z,4.30
2023-05-10T00:30:11.451Z,4.13
2023-05-10T00:31:13.960Z,5.00
2023-05-10T00:32:16.166Z,4.60
2023-05-10T00:33:19.339Z,4.57
2023-05-10T00:34:21.843Z,4.35
2023-05-10T00:35:24.219Z,3.88
2023-05-10T00:36:26.460Z,4.45
2023-05-10T00:37:28.752Z,3.80
2023-05-10T00:38:30.868Z,4.78
2023-05-10T00:39:32.988Z,4.43
2023-05-10T00:40:36.995Z,4.95
2023-05-10T00:41:39.286Z,4.50
2023-05-10T00:42:41.671Z,3.83
2023-05-10T00:43:43.966Z,4.57
2023-05-10T00:44:46.160Z,4.68
2023-05-10T00:45:48.353Z,4.53
2023-05-10T00:46:50.591Z,5.13
2023-05-10T00:47:56.097Z,4.68
2023-05-10T00:48:58.518Z,4.38
2023-05-10T00:50:01.690Z,4.25
2023-05-10T00:51:04.297Z,4.90
2023-05-10T00:52:07.109Z,4.65
2023-05-10T00:53:09.957Z,4.53
2023-05-10T00:54:16.084Z,4.57
2023-05-10T00:55:18.958Z,5.10
2023-05-10T00:56:24.034Z,4.38
2023-05-10T00:57:26.248Z,4.70
2023-05-10T00:58:29.400Z,5.05
2023-05-10T00:59:31.774Z,5.03
2023-05-10T01:00:34.670Z,4.80
2023-05-10T01:01:37.369Z,4.85
2023-05-10T01:02:39.750Z,5.15
2023-05-10T01:03:42.634Z,4.53
2023-05-10T01:04:44.807Z,5.05
2023-05-10T01:05:46.993Z,5.30
2023-05-10T01:06:49.138Z,5.30
2023-05-10T01:07:51.244Z,5.22
2023-05-10T01:08:53.376Z,4.47
2023-05-10T01:09:55.484Z,5.05
2023-05-10T01:10:58.217Z,4.82
2023-05-10T01:12:00.829Z,4.88
2023-05-10T01:13:04.158Z,5.13
2023-05-10T01:14:07.106Z,5.10
2023-05-10T01:15:11.929Z,4.70
2023-05-10T01:16:14.366Z,5.13
2023-05-10T01:17:17.382Z,5.03
2023-05-10T01:18:21.324Z,5.32
2023-05-10T01:19:25.321Z,5.10
2023-05-10T01:20:29.423Z,5.72
2023-05-10T01:21:44.492Z,4.93
2023-05-10T01:23:24.753Z,5.07
2023-05-10T01:24:50.290Z,5.63
2023-05-10T01:25:58.267Z,5.20
2023-05-10T01:27:18.679Z,5.35
2023-05-10T01:28:45.754Z,5.82
2023-05-10T01:29:58.313Z,4.88
2023-05-10T01:31:42.167Z,5.55
2023-05-10T01:32:47.328Z,5.60
2023-05-10T01:33:57.836Z,5.07
2023-05-10T01:35:18.832Z,5.50
2023-05-10T01:36:30.675Z,5.70
2023-05-10T01:38:11.632Z,5.30
2023-05-10T01:39:39.770Z,4.95
2023-05-10T01:40:52.046Z,5.30
2023-05-10T01:42:00.392Z,5.85
2023-05-10T01:43:05.421Z,5.32
2023-05-10T01:44:45.569Z,5.60
2023-05-10T01:46:13.405Z,4.93
2023-05-10T01:47:32.422Z,5.90
2023-05-10T01:48:34.780Z,5.38
2023-05-10T01:49:42.400Z,5.75
2023-05-10T01:50:45.019Z,5.13
2023-05-10T01:51:52.695Z,5.70
2023-05-10T01:52:56.338Z,5.57
2023-05-10T01:54:03.627Z,4.95
2023-05-10T01:55:17.683Z,6.05
2023-05-10T01:56:22.340Z,5.70
2023-05-10T01:57:27.546Z,4.65
2023-05-10T01:58:32.978Z,5.38
2023-05-10T01:59:41.903Z,5.45
2023-05-10T02:00:45.860Z,5.07
2023-05-10T02:01:48.697Z,5.80
2023-05-10T02:02:51.851Z,5.35
2023-05-10T02:03:55.294Z,5.10
2023-05-10T02:04:58.263Z,5.53
2023-05-10T02:06:00.724Z,5.30
2023-05-10T02:07:03.260Z,5.65
2023-05-10T02:08:07.988Z,5.88
2023-05-10T02:10:12.983Z,5.13
2023-05-10T02:11:15.299Z,5.32
2023-05-10T02:12:18.532Z,5.47
2023-05-10T02:13:20.899Z,4.97
2023-05-10T02:14:25.424Z,5.43
2023-05-10T02:15:27.897Z,5.60
2023-05-10T02:16:32.034Z,5.40
2023-05-10T02:17:35.955Z,5.57
2023-05-10T02:18:38.380Z,5.38
2023-05-10T02:19:41.927Z,5.05
2023-05-10T02:20:45.625Z,5.03
2023-05-10T02:21:47.842Z,6.00
2023-05-10T02:22:52.061Z,5.10
2023-05-10T02:23:55.330Z,5.22
2023-05-10T02:24:59.143Z,4.70
2023-05-10T02:26:01.324Z,5.57
2023-05-10T02:27:04.686Z,5.13
2023-05-10T02:28:07.978Z,5.15
2023-05-10T02:29:10.819Z,5.57
2023-05-10T02:30:13.169Z,5.75
2023-05-10T02:31:15.734Z,5.53
2023-05-10T02:32:19.159Z,5.40
2023-05-10T02:33:21.923Z,5.75
2023-05-10T02:34:26.801Z,5.63
2023-05-10T02:35:29.311Z,5.10
2023-05-10T02:36:32.484Z,5.47
2023-05-10T02:37:35.714Z,5.25
2023-05-10T02:38:37.984Z,4.90
2023-05-10T02:39:44.716Z,4.80
2023-05-10T02:40:47.763Z,5.38
2023-05-10T02:41:50.486Z,5.50
2023-05-10T02:42:53.593Z,6.32
2023-05-10T02:43:58.667Z,5.13
2023-05-10T02:45:02.422Z,5.82
2023-05-10T02:46:04.912Z,4.75
2023-05-10T02:47:07.088Z,5.60
2023-05-10T02:48:09.206Z,5.05
2023-05-10T02:49:11.677Z,4.90
2023-05-10T02:50:14.166Z,5.15
2023-05-10T02:51:18.720Z,5.90
2023-05-10T02:52:25.916Z,5.25
2023-05-10T02:53:33.084Z,5.07
2023-05-10T02:54:41.035Z,5.45
2023-05-10T02:55:44.585Z,5.25
2023-05-10T02:56:57.749Z,5.25
2023-05-10T02:58:02.086Z,5.00
2023-05-10T02:59:04.241Z,4.65
2023-05-10T03:00:07.080Z,5.68
2023-05-10T03:01:09.701Z,5.13
2023-05-10T03:02:13.493Z,5.20
2023-05-10T03:03:15.630Z,5.63
2023-05-10T03:04:17.799Z,4.90
2023-05-10T03:05:20.383Z,5.10
2023-05-10T03:06:22.494Z,5.53
2023-05-10T03:07:24.834Z,5.43
2023-05-10T03:08:27.314Z,5.25
2023-05-10T03:09:29.875Z,5.60
2023-05-10T03:10:32.731Z,5.68
2023-05-10T03:11:46.396Z,5.57
2023-05-10T03:13:26.137Z,5.47
2023-05-10T03:14:46.656Z,5.05
2023-05-10T03:16:01.507Z,5.55
2023-05-10T03:17:15.292Z,5.55
2023-05-10T03:18:23.583Z,5.15
2023-05-10T03:19:29.829Z,5.68
2023-05-10T03:20:52.485Z,6.57
2023-05-10T03:21:55.654Z,5.68
2023-05-10T03:23:05.904Z,5.53
2023-05-10T03:24:09.356Z,6.13
2023-05-10T03:25:12.592Z,5.03
2023-05-10T03:26:19.364Z,4.45
2023-05-10T03:27:22.391Z,5.20
2023-05-10T03:28:26.156Z,5.43
2023-05-10T03:29:29.167Z,6.28
2023-05-10T03:30:31.783Z,5.72
2023-05-10T03:31:33.970Z,5.60
2023-05-10T03:32:36.766Z,5.75
2023-05-10T03:33:50.170Z,6.00
2023-05-10T03:34:52.264Z,6.07
2023-05-10T03:35:54.415Z,5.68
2023-05-10T03:36:56.530Z,6.22
2023-05-10T03:37:58.589Z,7.05
2023-05-10T03:39:00.749Z,5.85
2023-05-10T03:40:03.711Z,5.72
2023-05-10T03:41:05.914Z,6.28
2023-05-10T03:42:08.017Z,6.38
2023-05-10T03:43:10.106Z,5.80
2023-05-10T03:44:12.244Z,6.35
2023-05-10T03:45:14.401Z,5.85
2023-05-10T03:46:16.557Z,5.07
2023-05-10T03:47:18.662Z,5.63
2023-05-10T03:48:20.781Z,6.63
2023-05-10T03:49:22.879Z,5.30
2023-05-10T03:50:25.519Z,5.50
2023-05-10T03:51:29.199Z,5.97
2023-05-10T03:52:31.301Z,5.32
2023-05-10T03:53:33.400Z,5.28
2023-05-10T03:54:35.532Z,5.40
2023-05-10T03:55:37.720Z,5.53
2023-05-10T03:56:39.771Z,5.65
2023-05-10T03:57:41.838Z,5.68
2023-05-10T03:58:43.994Z,5.50
2023-05-10T03:59:46.370Z,6.15
2023-05-10T04:00:48.523Z,6.03
2023-05-10T04:01:50.749Z,5.85
2023-05-10T04:02:52.978Z,6.78
2023-05-10T04:03:55.248Z,5.88
2023-05-10T04:04:57.650Z,5.30
2023-05-10T04:06:02.087Z,5.22
2023-05-10T04:07:04.537Z,6.00
2023-05-10T04:08:06.881Z,5.72
2023-05-10T04:09:09.395Z,6.30
2023-05-10T04:10:12.162Z,5.97
2023-05-10T04:11:15.163Z,4.80
2023-05-10T04:12:17.401Z,5.43
2023-05-10T04:13:20.060Z,6.10
2023-05-10T04:14:22.234Z,6.18
2023-05-10T04:15:24.486Z,6.18
2023-05-10T04:16:26.652Z,5.57
2023-05-10T04:17:28.843Z,6.05
2023-05-10T04:18:31.590Z,6.50
2023-05-10T04:19:33.976Z,6.20
2023-05-10T04:20:36.074Z,6.68
2023-05-10T04:21:38.249Z,6.00
2023-05-10T04:22:40.488Z,6.55
2023-05-10T04:23:42.609Z,5.90
2023-05-10T04:24:44.747Z,5.35
2023-05-10T04:25:47.007Z,6.13
2023-05-10T04:26:49.212Z,6.20
2023-05-10T04:27:51.308Z,7.13
2023-05-10T04:28:53.424Z,6.15
2023-05-10T04:29:55.493Z,6.45
2023-05-10T04:31:08.130Z,6.05
2023-05-10T04:32:11.145Z,6.00
2023-05-10T04:33:13.267Z,5.85
2023-05-10T04:34:15.461Z,7.05
2023-05-10T04:35:17.685Z,5.85
2023-05-10T04:36:19.854Z,5.53
2023-05-10T04:37:23.979Z,7.25
2023-05-10T04:38:26.208Z,6.00
2023-05-10T04:39:28.291Z,7.28
2023-05-10T04:40:30.467Z,6.10
2023-05-10T04:41:32.640Z,6.57
2023-05-10T04:42:34.706Z,6.15
2023-05-10T04:43:37.637Z,6.82
2023-05-10T04:44:39.799Z,7.20
2023-05-10T04:45:41.918Z,7.05
2023-05-10T04:46:44.082Z,6.85
2023-05-10T04:47:46.281Z,6.18
2023-05-10T04:48:48.469Z,6.70
2023-05-10T04:49:50.617Z,6.35
2023-05-10T04:50:52.770Z,6.47
2023-05-10T04:51:54.907Z,6.88
2023-05-10T04:52:57.058Z,6.65
2023-05-10T04:54:05.936Z,6.93
2023-05-10T04:55:10.543Z,6.90
2023-05-10T04:56:12.749Z,6.40
2023-05-10T04:57:14.833Z,6.80
2023-05-10T04:58:17.080Z,5.97
2023-05-10T04:59:19.240Z,6.47
2023-05-10T05:00:21.480Z,7.32
2023-05-10T05:01:24.197Z,6.88
2023-05-10T05:02:26.642Z,6.65
2023-05-10T05:03:28.916Z,6.97
2023-05-10T05:04:32.035Z,7.10
2023-05-10T05:05:34.198Z,6.95
2023-05-10T05:06:36.404Z,7.05
2023-05-10T05:07:39.455Z,7.22
2023-05-10T05:08:41.787Z,7.05
2023-05-10T05:09:43.917Z,6.60
2023-05-10T05:10:46.103Z,6.30
2023-05-10T05:11:48.227Z,6.47
2023-05-10T05:12:50.349Z,6.65
2023-05-10T05:13:52.680Z,6.10
2023-05-10T05:14:54.841Z,7.30
2023-05-10T05:15:57.054Z,7.03
2023-05-10T05:16:59.661Z,7.05
2023-05-10T05:18:01.794Z,6.47
2023-05-10T05:19:04.061Z,6.90
2023-05-10T05:20:06.861Z,7.13
2023-05-10T05:21:16.819Z,6.38
2023-05-10T05:22:20.525Z,5.72
2023-05-10T05:23:25.789Z,6.93
2023-05-10T05:24:27.965Z,7.03
2023-05-10T05:25:30.083Z,8.15
2023-05-10T05:26:32.213Z,7.47
2023-05-10T05:27:34.292Z,7.80
2023-05-10T05:28:38.288Z,7.65
2023-05-10T05:29:40.399Z,6.97
2023-05-10T05:30:42.678Z,7.63
2023-05-10T05:31:44.860Z,6.80
2023-05-10T05:32:48.258Z,7.05
2023-05-10T05:33:50.429Z,8.23
2023-05-10T05:34:52.691Z,7.35
2023-05-10T05:35:54.814Z,7.72
2023-05-10T05:36:56.895Z,6.35
2023-05-10T05:37:59.096Z,8.30
2023-05-10T05:39:01.177Z,8.82
2023-05-10T05:40:03.639Z,7.25
2023-05-10T05:41:05.838Z,7.55
2023-05-10T05:42:07.977Z,7.20
2023-05-10T05:43:10.134Z,6.93
2023-05-10T05:44:12.254Z,6.78
2023-05-10T05:45:14.562Z,6.95
2023-05-10T05:46:17.030Z,7.47
2023-05-10T05:47:19.145Z,6.43
2023-05-10T05:48:21.862Z,6.93
2023-05-10T05:49:24.039Z,6.88
2023-05-10T05:50:26.177Z,6.55
2023-05-10T05:51:28.330Z,7.20
2023-05-10T05:52:31.297Z,6.35
2023-05-10T05:53:33.462Z,6.60
2023-05-10T05:54:35.692Z,6.78
2023-05-10T05:55:37.985Z,6.43
2023-05-10T05:56:40.160Z,6.63
2023-05-10T05:57:42.345Z,6.75
2023-05-10T05:58:45.474Z,7.25
2023-05-10T05:59:47.705Z,6.65
2023-05-10T06:00:50.025Z,6.95
2023-05-10T06:01:52.171Z,7.55
2023-05-10T06:02:54.528Z,7.22
2023-05-10T06:03:56.777Z,7.25
2023-05-10T06:04:58.967Z,6.78
2023-05-10T06:06:01.060Z,7.13
2023-05-10T06:07:03.270Z,7.20
2023-05-10T06:08:05.432Z,6.55
2023-05-10T06:09:07.620Z,6.90
2023-05-10T06:10:10.325Z,7.57
2023-05-10T06:11:12.425Z,7.07
2023-05-10T06:12:14.521Z,8.00
2023-05-10T06:13:16.751Z,7.45
2023-05-10T06:14:21.546Z,6.13
2023-05-10T06:15:23.643Z,7.40
2023-05-10T06:16:25.880Z,7.10
2023-05-10T06:17:28.574Z,6.53
2023-05-10T06:18:30.876Z,6.70
2023-05-10T06:19:33.056Z,6.90
2023-05-10T06:20:35.236Z,6.40
2023-05-10T06:21:37.347Z,7.15
2023-05-10T06:22:39.507Z,6.25
2023-05-10T06:23:41.703Z,6.93
2023-05-10T06:24:44.671Z,7.03
2023-05-10T06:25:46.838Z,6.78
2023-05-10T06:26:50.969Z,7.82
2023-05-10T06:27:58.028Z,6.88
2023-05-10T06:29:00.462Z,7.03
2023-05-10T06:30:12.327Z,7.45
2023-05-10T06:31:15.728Z,6.43
2023-05-10T06:32:18.122Z,6.07
2023-05-10T06:33:20.262Z,6.82
2023-05-10T06:34:22.439Z,7.15
2023-05-10T06:35:24.645Z,6.88
2023-05-10T06:36:27.563Z,6.90
2023-05-10T06:37:29.729Z,8.02
2023-05-10T06:38:31.831Z,6.72
2023-05-10T06:39:33.930Z,7.00
2023-05-10T06:40:37.036Z,7.70
2023-05-10T06:41:39.145Z,6.63
2023-05-10T06:42:41.332Z,7.43
2023-05-10T06:43:44.343Z,6.82
2023-05-10T06:44:46.565Z,6.25
2023-05-10T06:45:51.535Z,6.85
2023-05-10T06:46:54.752Z,6.93
2023-05-10T06:47:57.074Z,7.13
2023-05-10T06:48:59.269Z,6.97
2023-05-10T06:50:01.597Z,8.15
2023-05-10T06:51:03.731Z,7.18
2023-05-10T06:52:05.864Z,7.78
2023-05-10T06:53:08.059Z,7.20
2023-05-10T06:54:10.200Z,7.03
2023-05-10T06:55:12.539Z,7.32
2023-05-10T06:56:15.012Z,7.28
2023-05-10T06:57:30.582Z,7.15
2023-05-10T06:58:33.826Z,6.55
2023-05-10T06:59:37.482Z,6.93
2023-05-10T07:00:41.733Z,6.85
2023-05-10T07:01:43.978Z,6.75
2023-05-10T07:02:46.251Z,7.00
2023-05-10T07:03:48.429Z,6.45
2023-05-10T07:04:51.186Z,7.40
2023-05-10T07:05:53.363Z,7.05
2023-05-10T07:06:55.543Z,6.90
2023-05-10T07:07:57.690Z,6.95
2023-05-10T07:09:00.255Z,6.70
2023-05-10T07:10:02.732Z,7.03
2023-05-10T07:11:06.336Z,6.78
2023-05-10T07:12:10.656Z,6.93
2023-05-10T07:13:13.848Z,6.55
2023-05-10T07:14:16.022Z,6.75
2023-05-10T07:15:18.825Z,6.00
2023-05-10T07:16:22.526Z,6.00
2023-05-10T07:17:24.811Z,8.63
2023-05-10T07:18:27.391Z,7.25
2023-05-10T07:19:30.618Z,7.03
2023-05-10T07:20:32.834Z,6.47
2023-05-10T07:21:36.171Z,6.82
2023-05-10T07:22:38.408Z,6.53
2023-05-10T07:23:41.656Z,6.97
2023-05-10T07:24:45.117Z,6.43
2023-05-10T07:25:50.771Z,6.75
2023-05-10T07:26:52.896Z,7.07
2023-05-10T07:27:55.040Z,6.95
2023-05-10T07:28:57.198Z,6.50
2023-05-10T07:29:59.731Z,6.60
2023-05-10T07:31:01.905Z,6.25
2023-05-10T07:32:04.130Z,6.50
2023-05-10T07:33:06.317Z,6.22
2023-05-10T07:34:08.572Z,6.20
2023-05-10T07:35:10.729Z,6.18
2023-05-10T07:36:12.865Z,6.40
2023-05-10T07:37:14.947Z,6.53
2023-05-10T07:38:18.479Z,7.05
2023-05-10T07:39:27.630Z,6.70
2023-05-10T07:40:30.564Z,6.65
2023-05-10T07:41:35.060Z,6.88
2023-05-10T07:42:38.065Z,6.40
2023-05-10T07:43:40.989Z,6.38
2023-05-10T07:44:43.256Z,6.32
2023-05-10T07:45:45.487Z,6.38
2023-05-10T07:46:48.723Z,6.10
2023-05-10T07:47:51.357Z,5.93
2023-05-10T07:48:53.528Z,5.57
2023-05-10T07:49:55.715Z,5.88
2023-05-10T07:50:57.843Z,5.18
2023-05-10T07:52:00.642Z,6.10
2023-05-10T07:53:02.860Z,5.50
2023-05-10T07:54:05.197Z,5.82
2023-05-10T07:55:08.403Z,5.13
2023-05-10T07:56:31.056Z,6.88
2023-05-10T07:57:33.477Z,6.10
2023-05-10T07:58:35.633Z,5.90
2023-05-10T07:59:37.952Z,5.88
2023-05-10T08:00:41.498Z,6.22
2023-05-10T08:01:44.151Z,5.88
2023-05-10T08:02:46.416Z,5.88
2023-05-10T08:03:49.056Z,5.03
2023-05-10T08:04:51.271Z,5.68
2023-05-10T08:05:53.400Z,5.32
2023-05-10T08:06:55.488Z,5.75
2023-05-10T08:07:57.558Z,5.20
2023-05-10T08:08:59.813Z,5.35
2023-05-10T08:10:02.760Z,5.00
2023-05-10T08:11:05.044Z,4.60
2023-05-10T08:12:07.317Z,4.88
2023-05-10T08:13:09.503Z,5.45
2023-05-10T08:14:11.668Z,5.03
2023-05-10T08:15:13.803Z,5.20
2023-05-10T08:16:16.950Z,4.88
2023-05-10T08:17:20.080Z,4.93
2023-05-10T08:18:22.741Z,5.07
2023-05-10T08:19:25.004Z,4.60
2023-05-10T08:20:27.171Z,4.57
2023-05-10T08:21:29.353Z,5.00
2023-05-10T08:22:31.755Z,5.75
2023-05-10T08:23:33.983Z,4.95
2023-05-10T08:24:39.324Z,5.35
2023-05-10T08:25:41.493Z,5.07
2023-05-10T08:26:43.728Z,4.95
2023-05-10T08:27:45.885Z,5.82
2023-05-10T08:28:48.034Z,5.70
2023-05-10T08:29:50.747Z,6.13
2023-05-10T08:30:53.312Z,5.20
2023-05-10T08:31:55.870Z,5.32
2023-05-10T08:32:58.107Z,4.90
2023-05-10T08:34:00.422Z,5.20
2023-05-10T08:35:02.897Z,5.43
2023-05-10T08:36:05.116Z,5.07
2023-05-10T08:37:07.381Z,5.20
2023-05-10T08:38:09.555Z,5.22
2023-05-10T08:39:19.470Z,5.25
2023-05-10T08:40:29.342Z,5.13
2023-05-10T08:41:34.549Z,5.40
2023-05-10T08:42:38.878Z,4.90
2023-05-10T08:43:42.592Z,7.53
2023-05-10T08:44:44.777Z,7.28
2023-05-10T08:45:48.026Z,5.45
2023-05-10T08:46:53.223Z,5.40
2023-05-10T08:47:55.378Z,5.60
2023-05-10T08:48:58.963Z,6.60
2023-05-10T08:50:01.305Z,6.35
2023-05-10T08:51:04.348Z,6.85
2023-05-10T08:52:08.285Z,7.75
2023-05-10T08:53:12.373Z,5.20
2023-05-10T08:54:14.849Z,5.47
2023-05-10T08:55:17.867Z,4.45
2023-05-10T08:56:21.353Z,5.38
2023-05-10T08:57:23.531Z,5.82
2023-05-10T08:58:26.240Z,6.72
2023-05-10T08:59:28.645Z,5.00
2023-05-10T09:00:30.900Z,5.07
2023-05-10T09:01:33.620Z,5.53
2023-05-10T09:02:36.479Z,5.25
2023-05-10T09:03:39.744Z,4.85
2023-05-10T09:04:42.153Z,5.40
2023-05-10T09:05:45.714Z,5.40
2023-05-10T09:06:47.864Z,5.20
2023-05-10T09:07:50.127Z,4.78
2023-05-10T09:08:53.203Z,5.05
2023-05-10T09:09:55.676Z,5.10
2023-05-10T09:10:58.300Z,4.93
2023-05-10T09:12:00.857Z,5.20
2023-05-10T09:13:03.301Z,4.65
2023-05-10T09:14:05.497Z,4.72
2023-05-10T09:15:08.655Z,4.78
2023-05-10T09:16:21.084Z,4.60
2023-05-10T09:17:26.072Z,5.05
2023-05-10T09:18:28.407Z,5.57
2023-05-10T09:19:30.968Z,4.65
2023-05-10T09:20:33.036Z,5.20
2023-05-10T09:21:39.221Z,4.88
2023-05-10T09:22:41.808Z,5.43
2023-05-10T09:23:48.031Z,5.22
2023-05-10T09:25:05.209Z,5.22
2023-05-10T09:26:07.823Z,5.00
2023-05-10T09:27:10.801Z,5.50
2023-05-10T09:28:13.755Z,5.25
2023-05-10T09:29:17.745Z,5.22
2023-05-10T09:30:30.912Z,5.10
2023-05-10T09:31:59.112Z,4.80
2023-05-10T09:33:02.104Z,4.55
2023-05-10T09:34:04.719Z,4.25
2023-05-10T09:35:08.412Z,4.50
2023-05-10T09:36:10.859Z,5.10
2023-05-10T09:37:13.238Z,4.80
2023-05-10T09:38:16.442Z,4.50
2023-05-10T09:39:19.147Z,4.65
2023-05-10T09:40:23.387Z,4.45
2023-05-10T09:41:26.048Z,4.43
2023-05-10T09:42:28.129Z,4.78
2023-05-10T09:43:38.869Z,4.35
2023-05-10T09:44:42.020Z,4.60
2023-05-10T09:45:44.275Z,5.05
2023-05-10T09:46:50.775Z,4.60
2023-05-10T09:47:53.360Z,4.75
2023-05-10T09:48:55.478Z,4.80
2023-05-10T09:50:03.834Z,4.78
2023-05-10T09:51:06.079Z,4.45
2023-05-10T09:52:09.025Z,5.32
2023-05-10T09:53:15.470Z,4.30
2023-05-10T09:54:17.814Z,4.68
2023-05-10T09:55:25.636Z,4.70
2023-05-10T09:56:36.172Z,4.60
2023-05-10T09:57:38.708Z,3.95
2023-05-10T09:58:41.468Z,4.70
2023-05-10T09:59:44.236Z,4.38
2023-05-10T10:00:48.677Z,4.25
2023-05-10T10:02:58.690Z,5.00
2023-05-10T10:04:04.666Z,4.65
2023-05-10T10:05:08.204Z,3.80
2023-05-10T10:06:18.751Z,4.13
2023-05-10T10:07:28.635Z,3.90
2023-05-10T10:08:30.861Z,3.97
2023-05-10T10:09:33.999Z,4.18
2023-05-10T10:10:36.678Z,3.90
2023-05-10T10:11:39.863Z,4.47
2023-05-10T10:12:42.603Z,4.53
2023-05-10T10:13:45.050Z,4.53
2023-05-10T10:14:48.896Z,4.32
2023-05-10T10:15:52.295Z,3.83
2023-05-10T10:17:06.833Z,5.10
2023-05-10T10:18:15.715Z,4.93
2023-05-10T10:19:21.783Z,4.32
2023-05-10T10:20:25.044Z,3.60
2023-05-10T10:21:27.490Z,3.60
2023-05-10T10:22:29.984Z,3.88
2023-05-10T10:23:32.121Z,3.72
2023-05-10T10:24:34.776Z,3.40
2023-05-10T10:25:36.923Z,3.53
2023-05-10T10:26:39.696Z,3.65
2023-05-10T10:27:53.649Z,3.33
2023-05-10T10:29:26.803Z,3.33
2023-05-10T10:30:43.415Z,3.70
2023-05-10T10:31:56.700Z,3.55
2023-05-10T10:33:28.392Z,3.63
2023-05-10T10:34:31.972Z,3.45
2023-05-10T10:35:34.288Z,3.05
2023-05-10T10:37:05.966Z,3.25
2023-05-10T10:38:09.613Z,3.60
2023-05-10T10:39:11.963Z,3.22
2023-05-10T10:40:27.296Z,3.72
2023-05-10T10:41:34.798Z,3.40
2023-05-10T10:42:47.144Z,3.17
2023-05-10T10:43:49.302Z,3.42
2023-05-10T10:45:14.808Z,3.50
2023-05-10T10:46:18.887Z,3.40
2023-05-10T10:47:30.153Z,3.60
2023-05-10T10:48:32.288Z,3.50
2023-05-10T10:49:39.296Z,3.50
2023-05-10T10:50:46.695Z,3.30
2023-05-10T10:52:14.239Z,3.15
2023-05-10T10:53:16.400Z,2.90
2023-05-10T10:54:28.927Z,3.40
2023-05-10T10:55:31.436Z,3.30
2023-05-10T10:56:34.745Z,3.38
2023-05-10T10:57:42.013Z,3.30
2023-05-10T10:58:52.202Z,4.03
2023-05-10T11:00:23.322Z,3.22
2023-05-10T11:01:33.835Z,2.97
2023-05-10T11:02:49.907Z,3.17
2023-05-10T11:04:01.172Z,4.22
2023-05-10T11:05:25.102Z,2.78
2023-05-10T11:06:32.768Z,3.72
2023-05-10T11:07:35.016Z,3.65
2023-05-10T11:08:47.107Z,3.40
2023-05-10T11:09:49.270Z,3.40
2023-05-10T11:11:13.794Z,3.63
2023-05-10T11:12:16.042Z,2.90
2023-05-10T11:13:28.634Z,3.10
2023-05-10T11:14:32.705Z,3.20
2023-05-10T11:15:39.894Z,2.88
2023-05-10T11:16:44.076Z,3.05
2023-05-10T11:17:48.454Z,2.78
2023-05-10T11:19:00.740Z,3.35
2023-05-10T11:20:15.708Z,2.80
2023-05-10T11:21:18.169Z,2.67
2023-05-10T11:22:20.472Z,2.72
2023-05-10T11:23:22.871Z,3.20
2023-05-10T11:24:28.284Z,3.20
2023-05-10T11:25:30.565Z,3.00
2023-05-10T11:26:34.529Z,7.55
2023-05-10T11:27:38.784Z,4.38
2023-05-10T11:28:48.105Z,4.82
2023-05-10T11:29:53.297Z,3.70
2023-05-10T11:30:55.824Z,3.05
2023-05-10T11:31:59.481Z,3.22
2023-05-10T11:33:01.801Z,2.88
2023-05-10T11:34:04.120Z,3.03
2023-05-10T11:35:10.000Z,2.65
2023-05-10T11:36:16.764Z,3.40
2023-05-10T11:37:19.267Z,2.92
2023-05-10T11:38:21.402Z,3.17
2023-05-10T11:39:33.068Z,3.38
2023-05-10T11:40:36.035Z,2.92
2023-05-10T11:41:38.231Z,3.00
2023-05-10T11:42:40.562Z,3.83
2023-05-10T11:43:43.338Z,3.05
2023-05-10T11:44:47.687Z,2.70
2023-05-10T11:45:49.865Z,2.85
2023-05-10T11:46:53.064Z,3.08
2023-05-10T11:47:55.425Z,2.92
2023-05-10T11:49:07.895Z,3.33
2023-05-10T11:50:11.826Z,3.10
2023-05-10T11:51:14.104Z,3.03
2023-05-10T11:52:16.192Z,3.45
2023-05-10T11:53:18.403Z,3.30
2023-05-10T11:54:20.706Z,3.10
2023-05-10T11:55:23.548Z,3.53
2023-05-10T11:56:27.406Z,3.22
2023-05-10T11:57:29.839Z,3.75
2023-05-10T11:58:32.709Z,3.58
2023-05-10T11:59:34.803Z,3.67
2023-05-10T12:00:37.050Z,3.55
2023-05-10T12:01:39.273Z,3.10
2023-05-10T12:02:41.588Z,3.30
2023-05-10T12:03:43.856Z,3.30
2023-05-10T12:04:46.112Z,3.15
2023-05-10T12:05:48.303Z,3.63
2023-05-10T12:06:50.414Z,2.83
2023-05-10T12:07:52.510Z,3.13
2023-05-10T12:08:54.807Z,2.80
2023-05-10T12:10:04.054Z,3.03
2023-05-10T12:11:08.555Z,2.80
2023-05-10T12:13:15.149Z,2.97
2023-05-10T12:14:17.702Z,2.80
2023-05-10T12:15:24.509Z,2.72
2023-05-10T12:16:30.087Z,3.05
2023-05-10T12:17:32.358Z,2.67
2023-05-10T12:18:34.775Z,3.10
2023-05-10T12:19:40.579Z,2.90
2023-05-10T12:20:42.750Z,3.58
2023-05-10T12:21:45.088Z,3.22
2023-05-10T12:22:54.104Z,2.80
2023-05-10T12:24:01.261Z,2.97
2023-05-10T12:25:03.847Z,3.13
2023-05-10T12:26:06.713Z,2.95
2023-05-10T12:30:05.914Z,3.30
2023-05-10T12:31:08.403Z,3.40
2023-05-10T12:32:10.521Z,3.17
2023-05-10T12:33:16.026Z,3.63
2023-05-10T12:34:28.419Z,4.00
2023-05-10T12:35:34.626Z,3.95
2023-05-10T12:36:39.688Z,3.58
2023-05-10T12:37:41.816Z,3.08
2023-05-10T12:38:48.624Z,3.03
2023-05-10T12:39:50.684Z,3.42
2023-05-10T12:40:52.876Z,3.30
2023-05-10T12:41:54.992Z,2.95
2023-05-10T12:42:57.191Z,3.10
2023-05-10T12:43:59.267Z,2.80
2023-05-10T12:45:01.329Z,2.70
2023-05-10T12:46:17.210Z,2.83
2023-05-10T12:47:19.314Z,2.88
2023-05-10T12:48:21.539Z,2.70
2023-05-10T12:49:23.669Z,2.70
2023-05-10T12:50:25.862Z,2.95
2023-05-10T12:51:28.138Z,3.22
2023-05-10T12:52:30.635Z,2.85
2023-05-10T12:53:32.798Z,3.17
2023-05-10T12:54:34.937Z,2.70
2023-05-10T12:55:37.026Z,2.83
2023-05-10T12:56:39.128Z,2.88
2023-05-10T12:57:41.153Z,3.80
2023-05-10T12:58:49.103Z,2.92
2023-05-10T12:59:51.681Z,3.10
2023-05-10T13:00:54.016Z,2.83
2023-05-10T13:01:56.177Z,2.80
2023-05-10T13:02:58.352Z,2.92
2023-05-10T13:04:01.213Z,3.33
2023-05-10T13:05:03.891Z,2.92
2023-05-10T13:06:07.285Z,3.22
2023-05-10T13:07:09.891Z,3.10
2023-05-10T13:08:12.052Z,3.00
2023-05-10T13:09:14.104Z,2.80
2023-05-10T13:10:17.126Z,2.90
2023-05-10T13:11:20.727Z,2.72
2023-05-10T13:12:22.851Z,2.50
2023-05-10T13:13:24.954Z,2.72
2023-05-10T13:14:27.502Z,2.60
2023-05-10T13:15:29.705Z,2.58
2023-05-10T13:16:32.431Z,2.40
2023-05-10T13:17:34.590Z,2.75
2023-05-10T13:18:36.742Z,2.75
2023-05-10T13:19:38.870Z,2.70
2023-05-10T13:20:41.025Z,2.78
2023-05-10T13:21:43.288Z,2.20
2023-05-10T13:22:45.948Z,2.35
2023-05-10T13:23:48.030Z,2.50
2023-05-10T13:24:50.602Z,2.50
2023-05-10T13:25:52.888Z,2.42
2023-05-10T13:26:54.968Z,2.40
2023-05-10T13:27:57.106Z,2.47
2023-05-10T13:28:59.190Z,2.50
2023-05-10T13:30:04.206Z,2.50
2023-05-10T13:31:06.417Z,2.65
2023-05-10T13:32:08.674Z,2.22
2023-05-10T13:33:11.006Z,2.50
2023-05-10T13:34:13.171Z,2.65
2023-05-10T13:35:15.397Z,2.38
2023-05-10T13:36:17.530Z,3.10
2023-05-10T13:37:19.789Z,3.25
2023-05-10T13:38:22.529Z,2.70
2023-05-10T13:39:24.828Z,2.60
2023-05-10T13:40:26.877Z,3.08
2023-05-10T13:41:28.995Z,2.90
2023-05-10T13:42:32.657Z,2.70
2023-05-10T13:43:34.821Z,2.75
2023-05-10T13:44:37.477Z,2.22
2023-05-10T13:45:39.926Z,2.53
2023-05-10T13:46:43.349Z,2.47
2023-05-10T13:47:45.480Z,2.50
2023-05-10T13:48:47.564Z,2.53
2023-05-10T13:49:49.660Z,2.83
2023-05-10T13:50:51.763Z,4.10
2023-05-10T13:51:53.822Z,2.78
2023-05-10T13:52:56.507Z,2.42
2023-05-10T13:53:59.340Z,2.60
2023-05-10T13:55:01.662Z,2.30
2023-05-10T13:56:03.948Z,2.30
2023-05-10T13:57:06.271Z,2.65
2023-05-10T13:58:08.467Z,3.03
2023-05-10T13:59:10.359Z,2.55
2023-05-10T14:00:12.661Z,2.58
2023-05-10T14:01:14.901Z,2.72
2023-05-10T14:02:17.103Z,2.47
2023-05-10T14:03:19.262Z,2.10
2023-05-10T14:04:21.643Z,2.08
2023-05-10T14:05:26.286Z,2.22
2023-05-10T14:06:28.807Z,2.50
2023-05-10T14:07:31.709Z,2.20
2023-05-10T14:08:34.082Z,1.80
2023-05-10T14:09:36.153Z,2.30
2023-05-10T14:10:38.994Z,2.38
2023-05-10T14:11:44.093Z,2.33
2023-05-10T14:12:46.245Z,2.03
2023-05-10T14:13:48.315Z,2.05
2023-05-10T14:14:50.428Z,2.13
2023-05-10T14:15:54.590Z,2.10
2023-05-10T14:16:56.962Z,2.28
2023-05-10T14:17:59.460Z,2.50
2023-05-10T14:19:02.653Z,2.17
2023-05-10T14:20:05.512Z,2.25
2023-05-10T14:21:07.634Z,2.25